sensor_id;sensor_type;location;lat;lon;timestamp;temperature;humidity
23475;DHT22;11910;52.086;21.066;2023-07-31T00:00:14;19.60;99.90
23475;DHT22;11910;52.086;21.066;2023-07-31T00:02:40;19.60;99.90
23475;DHT22;11910;52.086;21.066;2023-07-31T00:05:07;19.60;99.90
23475;DHT22;11910;52.086;21.066;2023-07-31T00:07:33;19.60;99.90
23475;DHT22;11910;52.086;21.066;2023-07-31T00:09:59;19.60;99.90
23475;DHT22;11910;52.086;21.066;2023-07-31T00:12:24;19.60;99.90
23475;DHT22;11910;52.086;21.066;2023-07-31T00:14:50;19.50;99.90
23475;DHT22;11910;52.086;21.066;2023-07-31T00:17:17;19.50;99.90
23475;DHT22;11910;52.086;21.066;2023-07-31T00:19:42;19.50;99.90
23475;DHT22;11910;52.086;21.066;2023-07-31T00:22:08;19.40;99.90
23475;DHT22;11910;52.086;21.066;2023-07-31T00:24:34;19.40;99.90
23475;DHT22;11910;52.086;21.066;2023-07-31T00:26:59;19.40;99.90
23475;DHT22;11910;52.086;21.066;2023-07-31T00:29:25;19.40;99.90
23475;DHT22;11910;52.086;21.066;2023-07-31T00:31:50;19.30;99.90
23475;DHT22;11910;52.086;21.066;2023-07-31T00:34:16;19.30;99.90
23475;DHT22;11910;52.086;21.066;2023-07-31T00:36:41;19.30;99.90
23475;DHT22;11910;52.086;21.066;2023-07-31T00:39:07;19.20;99.90
23475;DHT22;11910;52.086;21.066;2023-07-31T00:41:32;19.20;99.90
23475;DHT22;11910;52.086;21.066;2023-07-31T00:43:58;19.20;99.90
23475;DHT22;11910;52.086;21.066;2023-07-31T00:46:24;19.20;99.90
23475;DHT22;11910;52.086;21.066;2023-07-31T00:48:49;19.10;99.90
23475;DHT22;11910;52.086;21.066;2023-07-31T00:51:15;19.00;99.90
23475;DHT22;11910;52.086;21.066;2023-07-31T00:53:41;19.00;99.90
23475;DHT22;11910;52.086;21.066;2023-07-31T00:56:08;18.90;99.90
23475;DHT22;11910;52.086;21.066;2023-07-31T00:58:34;18.90;99.90
23475;DHT22;11910;52.086;21.066;2023-07-31T01:01:00;18.90;99.90
23475;DHT22;11910;52.086;21.066;2023-07-31T01:03:25;18.80;99.90
23475;DHT22;11910;52.086;21.066;2023-07-31T01:08:48;18.70;99.90
23475;DHT22;11910;52.086;21.066;2023-07-31T01:11:28;18.70;99.90
23475;DHT22;11910;52.086;21.066;2023-07-31T01:13:57;18.70;99.90
23475;DHT22;11910;52.086;21.066;2023-07-31T01:16:24;18.80;99.90
23475;DHT22;11910;52.086;21.066;2023-07-31T01:18:50;18.80;99.90
23475;DHT22;11910;52.086;21.066;2023-07-31T01:21:48;18.70;99.90
23475;DHT22;11910;52.086;21.066;2023-07-31T01:24:28;18.70;99.90
23475;DHT22;11910;52.086;21.066;2023-07-31T01:27:10;18.70;99.90
23475;DHT22;11910;52.086;21.066;2023-07-31T01:29:38;18.70;99.90
23475;DHT22;11910;52.086;21.066;2023-07-31T01:32:09;18.70;99.90
23475;DHT22;11910;52.086;21.066;2023-07-31T01:34:37;18.60;99.90
23475;DHT22;11910;52.086;21.066;2023-07-31T01:37:04;18.60;99.90
23475;DHT22;11910;52.086;21.066;2023-07-31T01:39:29;18.60;99.90
23475;DHT22;11910;52.086;21.066;2023-07-31T01:41:55;18.50;99.90
23475;DHT22;11910;52.086;21.066;2023-07-31T01:44:20;18.40;99.90
23475;DHT22;11910;52.086;21.066;2023-07-31T01:46:46;18.50;99.90
23475;DHT22;11910;52.086;21.066;2023-07-31T01:49:12;18.50;99.90
23475;DHT22;11910;52.086;21.066;2023-07-31T01:51:37;18.40;99.90
23475;DHT22;11910;52.086;21.066;2023-07-31T01:54:03;18.40;99.90
23475;DHT22;11910;52.086;21.066;2023-07-31T01:56:28;18.40;99.90
23475;DHT22;11910;52.086;21.066;2023-07-31T01:58:54;18.40;99.90
23475;DHT22;11910;52.086;21.066;2023-07-31T02:01:20;18.30;99.90
23475;DHT22;11910;52.086;21.066;2023-07-31T02:03:45;18.30;99.90
23475;DHT22;11910;52.086;21.066;2023-07-31T02:06:11;18.30;99.90
23475;DHT22;11910;52.086;21.066;2023-07-31T02:08:37;18.30;99.90
23475;DHT22;11910;52.086;21.066;2023-07-31T02:11:03;18.30;99.90
23475;DHT22;11910;52.086;21.066;2023-07-31T02:13:28;18.30;99.90
23475;DHT22;11910;52.086;21.066;2023-07-31T02:15:54;18.20;99.90
23475;DHT22;11910;52.086;21.066;2023-07-31T02:18:20;18.20;99.90
23475;DHT22;11910;52.086;21.066;2023-07-31T02:20:52;18.10;99.90
23475;DHT22;11910;52.086;21.066;2023-07-31T02:23:20;18.20;99.90
23475;DHT22;11910;52.086;21.066;2023-07-31T02:25:46;18.10;99.90
23475;DHT22;11910;52.086;21.066;2023-07-31T02:28:12;18.10;99.90
23475;DHT22;11910;52.086;21.066;2023-07-31T02:30:38;18.10;99.90
23475;DHT22;11910;52.086;21.066;2023-07-31T02:33:05;18.00;99.90
23475;DHT22;11910;52.086;21.066;2023-07-31T02:35:30;18.00;99.90
23475;DHT22;11910;52.086;21.066;2023-07-31T02:37:56;18.00;99.90
23475;DHT22;11910;52.086;21.066;2023-07-31T02:40:22;18.00;99.90
23475;DHT22;11910;52.086;21.066;2023-07-31T02:42:47;18.00;99.90
23475;DHT22;11910;52.086;21.066;2023-07-31T02:45:13;17.90;99.90
23475;DHT22;11910;52.086;21.066;2023-07-31T02:47:39;17.90;99.90
23475;DHT22;11910;52.086;21.066;2023-07-31T02:50:05;17.90;99.90
23475;DHT22;11910;52.086;21.066;2023-07-31T02:52:31;18.00;99.90
23475;DHT22;11910;52.086;21.066;2023-07-31T02:54:57;18.00;99.90
23475;DHT22;11910;52.086;21.066;2023-07-31T02:57:23;18.00;99.90
23475;DHT22;11910;52.086;21.066;2023-07-31T02:59:49;18.00;99.90
23475;DHT22;11910;52.086;21.066;2023-07-31T03:02:14;18.10;99.90
23475;DHT22;11910;52.086;21.066;2023-07-31T03:04:40;18.10;99.90
23475;DHT22;11910;52.086;21.066;2023-07-31T03:07:06;18.10;99.90
23475;DHT22;11910;52.086;21.066;2023-07-31T03:09:31;18.20;99.90
23475;DHT22;11910;52.086;21.066;2023-07-31T03:11:57;18.30;99.90
23475;DHT22;11910;52.086;21.066;2023-07-31T03:14:22;18.30;99.90
23475;DHT22;11910;52.086;21.066;2023-07-31T03:16:48;18.30;99.90
23475;DHT22;11910;52.086;21.066;2023-07-31T03:19:14;18.40;99.90
23475;DHT22;11910;52.086;21.066;2023-07-31T03:21:40;18.50;99.90
23475;DHT22;11910;52.086;21.066;2023-07-31T03:24:06;18.60;99.90
23475;DHT22;11910;52.086;21.066;2023-07-31T03:26:32;18.60;99.90
23475;DHT22;11910;52.086;21.066;2023-07-31T03:28:58;18.70;99.90
23475;DHT22;11910;52.086;21.066;2023-07-31T03:31:23;18.70;99.90
23475;DHT22;11910;52.086;21.066;2023-07-31T03:33:49;18.80;99.90
23475;DHT22;11910;52.086;21.066;2023-07-31T03:36:14;18.90;99.90
23475;DHT22;11910;52.086;21.066;2023-07-31T03:38:40;18.90;99.90
23475;DHT22;11910;52.086;21.066;2023-07-31T03:41:06;19.00;99.90
23475;DHT22;11910;52.086;21.066;2023-07-31T03:43:32;19.00;99.90
23475;DHT22;11910;52.086;21.066;2023-07-31T03:45:59;19.10;99.90
23475;DHT22;11910;52.086;21.066;2023-07-31T03:48:25;19.10;99.90
23475;DHT22;11910;52.086;21.066;2023-07-31T03:50:51;19.10;99.90
23475;DHT22;11910;52.086;21.066;2023-07-31T03:53:16;19.10;99.90
23475;DHT22;11910;52.086;21.066;2023-07-31T03:55:42;19.20;99.90
23475;DHT22;11910;52.086;21.066;2023-07-31T03:58:08;19.20;99.90
23475;DHT22;11910;52.086;21.066;2023-07-31T04:00:33;19.20;99.90
23475;DHT22;11910;52.086;21.066;2023-07-31T04:02:59;19.30;99.90
23475;DHT22;11910;52.086;21.066;2023-07-31T04:05:25;19.30;99.90
23475;DHT22;11910;52.086;21.066;2023-07-31T04:07:50;19.30;99.90
23475;DHT22;11910;52.086;21.066;2023-07-31T04:10:16;19.30;99.90
23475;DHT22;11910;52.086;21.066;2023-07-31T04:12:41;19.30;99.90
23475;DHT22;11910;52.086;21.066;2023-07-31T04:15:07;19.30;99.90
23475;DHT22;11910;52.086;21.066;2023-07-31T04:17:33;19.30;99.90
23475;DHT22;11910;52.086;21.066;2023-07-31T04:19:58;19.40;99.90
23475;DHT22;11910;52.086;21.066;2023-07-31T04:22:24;19.30;99.90
23475;DHT22;11910;52.086;21.066;2023-07-31T04:24:49;19.40;99.90
23475;DHT22;11910;52.086;21.066;2023-07-31T04:27:15;19.40;99.90
23475;DHT22;11910;52.086;21.066;2023-07-31T04:29:41;19.40;99.90
23475;DHT22;11910;52.086;21.066;2023-07-31T04:32:08;19.40;99.90
23475;DHT22;11910;52.086;21.066;2023-07-31T04:34:34;19.40;99.90
23475;DHT22;11910;52.086;21.066;2023-07-31T04:36:59;19.40;99.90
23475;DHT22;11910;52.086;21.066;2023-07-31T04:39:25;19.40;99.90
23475;DHT22;11910;52.086;21.066;2023-07-31T04:41:50;19.40;99.90
23475;DHT22;11910;52.086;21.066;2023-07-31T04:44:16;19.40;99.90
23475;DHT22;11910;52.086;21.066;2023-07-31T04:46:41;19.40;99.90
23475;DHT22;11910;52.086;21.066;2023-07-31T04:49:07;19.40;99.90
23475;DHT22;11910;52.086;21.066;2023-07-31T04:51:32;19.40;99.90
23475;DHT22;11910;52.086;21.066;2023-07-31T04:53:58;19.40;99.90
23475;DHT22;11910;52.086;21.066;2023-07-31T04:56:24;19.40;99.90
23475;DHT22;11910;52.086;21.066;2023-07-31T04:58:49;19.40;99.90
23475;DHT22;11910;52.086;21.066;2023-07-31T05:01:15;19.40;99.90
23475;DHT22;11910;52.086;21.066;2023-07-31T05:03:41;19.40;99.90
23475;DHT22;11910;52.086;21.066;2023-07-31T05:06:06;19.40;99.90
23475;DHT22;11910;52.086;21.066;2023-07-31T05:08:32;19.50;99.90
23475;DHT22;11910;52.086;21.066;2023-07-31T05:10:58;19.50;99.90
23475;DHT22;11910;52.086;21.066;2023-07-31T05:13:24;19.50;99.90
23475;DHT22;11910;52.086;21.066;2023-07-31T05:15:50;19.60;99.90
23475;DHT22;11910;52.086;21.066;2023-07-31T05:18:16;19.60;99.90
23475;DHT22;11910;52.086;21.066;2023-07-31T05:20:41;19.70;99.90
23475;DHT22;11910;52.086;21.066;2023-07-31T05:23:07;19.70;99.90
23475;DHT22;11910;52.086;21.066;2023-07-31T05:25:33;19.80;99.90
23475;DHT22;11910;52.086;21.066;2023-07-31T05:27:58;19.80;99.90
23475;DHT22;11910;52.086;21.066;2023-07-31T05:30:24;19.90;99.90
23475;DHT22;11910;52.086;21.066;2023-07-31T05:32:49;20.00;99.80
23475;DHT22;11910;52.086;21.066;2023-07-31T05:35:15;20.00;98.90
23475;DHT22;11910;52.086;21.066;2023-07-31T05:37:41;19.90;99.10
23475;DHT22;11910;52.086;21.066;2023-07-31T05:40:09;20.00;99.30
23475;DHT22;11910;52.086;21.066;2023-07-31T05:42:35;20.00;99.00
23475;DHT22;11910;52.086;21.066;2023-07-31T05:45:03;20.00;99.10
23475;DHT22;11910;52.086;21.066;2023-07-31T05:47:29;20.00;99.40
23475;DHT22;11910;52.086;21.066;2023-07-31T05:49:54;20.00;99.40
23475;DHT22;11910;52.086;21.066;2023-07-31T05:52:20;19.90;98.90
23475;DHT22;11910;52.086;21.066;2023-07-31T05:54:46;19.90;99.00
23475;DHT22;11910;52.086;21.066;2023-07-31T05:57:11;20.00;99.00
23475;DHT22;11910;52.086;21.066;2023-07-31T05:59:37;20.00;99.40
23475;DHT22;11910;52.086;21.066;2023-07-31T06:02:03;19.90;98.70
23475;DHT22;11910;52.086;21.066;2023-07-31T06:04:28;19.90;99.10
23475;DHT22;11910;52.086;21.066;2023-07-31T06:06:54;19.90;99.30
23475;DHT22;11910;52.086;21.066;2023-07-31T06:09:20;19.90;98.80
23475;DHT22;11910;52.086;21.066;2023-07-31T06:11:46;19.90;99.40
23475;DHT22;11910;52.086;21.066;2023-07-31T06:14:11;20.00;98.90
23475;DHT22;11910;52.086;21.066;2023-07-31T06:16:37;20.00;98.70
23475;DHT22;11910;52.086;21.066;2023-07-31T06:19:03;20.00;98.60
23475;DHT22;11910;52.086;21.066;2023-07-31T06:21:28;19.90;98.70
23475;DHT22;11910;52.086;21.066;2023-07-31T06:23:55;19.90;99.10
23475;DHT22;11910;52.086;21.066;2023-07-31T06:26:20;20.00;98.50
23475;DHT22;11910;52.086;21.066;2023-07-31T06:28:46;20.00;99.10
23475;DHT22;11910;52.086;21.066;2023-07-31T06:31:11;19.90;99.20
23475;DHT22;11910;52.086;21.066;2023-07-31T06:33:37;20.00;99.50
23475;DHT22;11910;52.086;21.066;2023-07-31T06:36:03;20.00;99.60
23475;DHT22;11910;52.086;21.066;2023-07-31T06:38:28;20.10;99.80
23475;DHT22;11910;52.086;21.066;2023-07-31T06:40:54;20.10;99.90
23475;DHT22;11910;52.086;21.066;2023-07-31T06:43:20;20.10;99.90
23475;DHT22;11910;52.086;21.066;2023-07-31T06:45:54;20.10;99.70
23475;DHT22;11910;52.086;21.066;2023-07-31T06:48:20;20.20;99.90
23475;DHT22;11910;52.086;21.066;2023-07-31T06:50:46;20.30;99.90
23475;DHT22;11910;52.086;21.066;2023-07-31T06:53:38;20.30;99.90
23475;DHT22;11910;52.086;21.066;2023-07-31T06:56:36;20.30;99.20
23475;DHT22;11910;52.086;21.066;2023-07-31T06:59:20;20.20;99.20
23475;DHT22;11910;52.086;21.066;2023-07-31T07:01:56;20.30;99.30
23475;DHT22;11910;52.086;21.066;2023-07-31T07:07:44;20.30;99.40
23475;DHT22;11910;52.086;21.066;2023-07-31T07:10:30;20.40;99.30
23475;DHT22;11910;52.086;21.066;2023-07-31T07:12:55;20.50;98.70
23475;DHT22;11910;52.086;21.066;2023-07-31T07:15:21;20.70;98.40
23475;DHT22;11910;52.086;21.066;2023-07-31T07:17:47;20.80;98.20
23475;DHT22;11910;52.086;21.066;2023-07-31T07:20:12;20.90;98.40
23475;DHT22;11910;52.086;21.066;2023-07-31T07:22:38;20.90;98.00
23475;DHT22;11910;52.086;21.066;2023-07-31T07:25:04;20.90;97.50
23475;DHT22;11910;52.086;21.066;2023-07-31T07:27:30;21.10;97.80
23475;DHT22;11910;52.086;21.066;2023-07-31T07:29:56;21.30;96.90
23475;DHT22;11910;52.086;21.066;2023-07-31T07:32:21;21.50;96.70
23475;DHT22;11910;52.086;21.066;2023-07-31T07:34:48;21.50;96.90
23475;DHT22;11910;52.086;21.066;2023-07-31T07:37:14;21.60;96.40
23475;DHT22;11910;52.086;21.066;2023-07-31T07:39:41;21.60;95.70
23475;DHT22;11910;52.086;21.066;2023-07-31T07:42:07;21.70;95.80
23475;DHT22;11910;52.086;21.066;2023-07-31T07:44:32;21.90;95.30
23475;DHT22;11910;52.086;21.066;2023-07-31T07:46:58;22.00;94.80
23475;DHT22;11910;52.086;21.066;2023-07-31T07:49:24;22.30;94.20
23475;DHT22;11910;52.086;21.066;2023-07-31T07:51:52;22.40;93.20
23475;DHT22;11910;52.086;21.066;2023-07-31T07:54:18;22.40;94.20
23475;DHT22;11910;52.086;21.066;2023-07-31T07:56:44;22.40;93.20
23475;DHT22;11910;52.086;21.066;2023-07-31T07:59:10;22.40;92.30
23475;DHT22;11910;52.086;21.066;2023-07-31T08:01:35;22.40;93.10
23475;DHT22;11910;52.086;21.066;2023-07-31T08:04:01;22.40;92.30
23475;DHT22;11910;52.086;21.066;2023-07-31T08:06:26;22.70;92.30
23475;DHT22;11910;52.086;21.066;2023-07-31T08:08:52;22.90;91.40
23475;DHT22;11910;52.086;21.066;2023-07-31T08:11:18;23.10;91.20
23475;DHT22;11910;52.086;21.066;2023-07-31T08:13:43;23.40;91.30
23475;DHT22;11910;52.086;21.066;2023-07-31T08:16:12;23.40;89.80
23475;DHT22;11910;52.086;21.066;2023-07-31T08:18:37;23.50;90.30
23475;DHT22;11910;52.086;21.066;2023-07-31T08:21:03;23.60;89.80
23475;DHT22;11910;52.086;21.066;2023-07-31T08:23:29;23.70;89.20
23475;DHT22;11910;52.086;21.066;2023-07-31T08:25:54;23.70;88.10
23475;DHT22;11910;52.086;21.066;2023-07-31T08:28:20;23.70;89.20
23475;DHT22;11910;52.086;21.066;2023-07-31T08:30:46;24.60;89.80
23475;DHT22;11910;52.086;21.066;2023-07-31T08:33:11;24.60;88.50
23475;DHT22;11910;52.086;21.066;2023-07-31T08:35:37;24.70;86.10
23475;DHT22;11910;52.086;21.066;2023-07-31T08:38:03;25.70;81.60
23475;DHT22;11910;52.086;21.066;2023-07-31T08:40:29;27.00;79.20
23475;DHT22;11910;52.086;21.066;2023-07-31T08:42:55;28.00;76.70
23475;DHT22;11910;52.086;21.066;2023-07-31T08:45:30;28.40;74.10
23475;DHT22;11910;52.086;21.066;2023-07-31T08:47:56;28.30;70.60
23475;DHT22;11910;52.086;21.066;2023-07-31T08:50:25;27.70;66.80
23475;DHT22;11910;52.086;21.066;2023-07-31T08:52:52;27.00;69.60
23475;DHT22;11910;52.086;21.066;2023-07-31T08:55:18;26.60;69.30
23475;DHT22;11910;52.086;21.066;2023-07-31T08:57:51;26.60;70.50
23475;DHT22;11910;52.086;21.066;2023-07-31T09:00:20;27.30;71.40
23475;DHT22;11910;52.086;21.066;2023-07-31T09:03:00;28.60;66.70
23475;DHT22;11910;52.086;21.066;2023-07-31T09:05:31;29.70;63.50
23475;DHT22;11910;52.086;21.066;2023-07-31T09:07:57;30.80;62.00
23475;DHT22;11910;52.086;21.066;2023-07-31T09:10:23;31.80;57.20
23475;DHT22;11910;52.086;21.066;2023-07-31T09:12:51;31.60;56.40
23475;DHT22;11910;52.086;21.066;2023-07-31T09:15:17;32.10;55.40
23475;DHT22;11910;52.086;21.066;2023-07-31T09:17:43;32.60;56.60
23475;DHT22;11910;52.086;21.066;2023-07-31T09:20:18;32.40;54.70
23475;DHT22;11910;52.086;21.066;2023-07-31T09:22:45;30.60;55.10
23475;DHT22;11910;52.086;21.066;2023-07-31T09:25:18;31.60;56.10
23475;DHT22;11910;52.086;21.066;2023-07-31T09:30:21;30.80;55.40
23475;DHT22;11910;52.086;21.066;2023-07-31T09:32:48;31.30;56.80
23475;DHT22;11910;52.086;21.066;2023-07-31T09:37:57;31.20;53.30
23475;DHT22;11910;52.086;21.066;2023-07-31T09:40:32;30.70;52.40
23475;DHT22;11910;52.086;21.066;2023-07-31T09:43:04;29.20;56.60
23475;DHT22;11910;52.086;21.066;2023-07-31T09:45:35;32.30;53.10
23475;DHT22;11910;52.086;21.066;2023-07-31T09:48:10;33.90;51.30
23475;DHT22;11910;52.086;21.066;2023-07-31T09:50:40;34.30;49.00
23475;DHT22;11910;52.086;21.066;2023-07-31T09:53:07;35.00;48.10
23475;DHT22;11910;52.086;21.066;2023-07-31T09:55:34;35.30;48.10
23475;DHT22;11910;52.086;21.066;2023-07-31T09:58:07;35.40;46.40
23475;DHT22;11910;52.086;21.066;2023-07-31T10:00:34;35.90;47.50
23475;DHT22;11910;52.086;21.066;2023-07-31T10:03:01;36.50;44.40
23475;DHT22;11910;52.086;21.066;2023-07-31T10:05:50;37.00;55.60
23475;DHT22;11910;52.086;21.066;2023-07-31T10:08:23;37.30;54.30
23475;DHT22;11910;52.086;21.066;2023-07-31T10:10:52;37.20;55.10
23475;DHT22;11910;52.086;21.066;2023-07-31T10:13:18;37.20;57.90
23475;DHT22;11910;52.086;21.066;2023-07-31T10:15:47;35.40;56.90
23475;DHT22;11910;52.086;21.066;2023-07-31T10:18:13;36.20;58.80
23475;DHT22;11910;52.086;21.066;2023-07-31T10:20:40;37.20;57.70
23475;DHT22;11910;52.086;21.066;2023-07-31T10:23:06;38.00;55.50
23475;DHT22;11910;52.086;21.066;2023-07-31T10:25:32;37.40;57.20
23475;DHT22;11910;52.086;21.066;2023-07-31T10:27:58;33.80;60.30
23475;DHT22;11910;52.086;21.066;2023-07-31T10:30:27;32.20;66.40
23475;DHT22;11910;52.086;21.066;2023-07-31T10:32:55;33.80;65.60
23475;DHT22;11910;52.086;21.066;2023-07-31T10:35:21;35.40;65.00
23475;DHT22;11910;52.086;21.066;2023-07-31T10:37:50;35.90;60.70
23475;DHT22;11910;52.086;21.066;2023-07-31T10:40:19;34.50;64.20
23475;DHT22;11910;52.086;21.066;2023-07-31T10:42:52;33.30;65.30
23475;DHT22;11910;52.086;21.066;2023-07-31T10:45:37;32.80;67.30
23475;DHT22;11910;52.086;21.066;2023-07-31T10:50:32;31.50;70.90
23475;DHT22;11910;52.086;21.066;2023-07-31T10:52:58;31.60;71.00
23475;DHT22;11910;52.086;21.066;2023-07-31T10:55:31;31.70;68.10
23475;DHT22;11910;52.086;21.066;2023-07-31T10:58:05;31.00;70.10
23475;DHT22;11910;52.086;21.066;2023-07-31T11:00:31;30.60;69.40
23475;DHT22;11910;52.086;21.066;2023-07-31T11:08:15;30.50;71.90
23475;DHT22;11910;52.086;21.066;2023-07-31T11:10:45;30.70;69.90
23475;DHT22;11910;52.086;21.066;2023-07-31T11:13:11;29.60;71.50
23475;DHT22;11910;52.086;21.066;2023-07-31T11:15:37;29.20;73.90
23475;DHT22;11910;52.086;21.066;2023-07-31T11:18:03;28.80;74.10
23475;DHT22;11910;52.086;21.066;2023-07-31T11:20:31;28.50;74.30
23475;DHT22;11910;52.086;21.066;2023-07-31T11:23:02;30.80;72.90
23475;DHT22;11910;52.086;21.066;2023-07-31T11:25:29;32.60;66.90
23475;DHT22;11910;52.086;21.066;2023-07-31T11:27:55;32.70;64.40
23475;DHT22;11910;52.086;21.066;2023-07-31T11:30:21;31.30;65.50
23475;DHT22;11910;52.086;21.066;2023-07-31T11:32:47;30.30;68.60
23475;DHT22;11910;52.086;21.066;2023-07-31T11:35:13;29.80;69.70
23475;DHT22;11910;52.086;21.066;2023-07-31T11:37:40;29.30;69.40
23475;DHT22;11910;52.086;21.066;2023-07-31T11:40:06;28.90;71.70
23475;DHT22;11910;52.086;21.066;2023-07-31T11:42:32;28.30;70.80
23475;DHT22;11910;52.086;21.066;2023-07-31T11:44:57;28.40;72.00
23475;DHT22;11910;52.086;21.066;2023-07-31T11:47:25;28.70;71.80
23475;DHT22;11910;52.086;21.066;2023-07-31T11:49:51;28.90;70.80
23475;DHT22;11910;52.086;21.066;2023-07-31T11:52:18;28.80;70.90
23475;DHT22;11910;52.086;21.066;2023-07-31T11:54:46;28.60;71.70
23475;DHT22;11910;52.086;21.066;2023-07-31T11:57:13;28.30;72.40
23475;DHT22;11910;52.086;21.066;2023-07-31T11:59:39;28.20;71.60
23475;DHT22;11910;52.086;21.066;2023-07-31T12:02:05;28.20;71.20
23475;DHT22;11910;52.086;21.066;2023-07-31T12:04:31;28.20;71.40
23475;DHT22;11910;52.086;21.066;2023-07-31T12:06:56;27.90;70.40
23475;DHT22;11910;52.086;21.066;2023-07-31T12:09:25;27.60;71.70
23475;DHT22;11910;52.086;21.066;2023-07-31T12:11:51;27.40;70.70
23475;DHT22;11910;52.086;21.066;2023-07-31T12:14:28;27.10;70.10
23475;DHT22;11910;52.086;21.066;2023-07-31T12:16:58;27.00;71.60
23475;DHT22;11910;52.086;21.066;2023-07-31T12:19:25;27.00;70.90
23475;DHT22;11910;52.086;21.066;2023-07-31T12:21:58;27.00;71.70
23475;DHT22;11910;52.086;21.066;2023-07-31T12:24:26;26.80;70.00
23475;DHT22;11910;52.086;21.066;2023-07-31T12:26:52;26.80;72.10
23475;DHT22;11910;52.086;21.066;2023-07-31T12:29:18;26.50;70.50
23475;DHT22;11910;52.086;21.066;2023-07-31T12:31:44;26.40;70.70
23475;DHT22;11910;52.086;21.066;2023-07-31T12:34:17;26.40;71.70
23475;DHT22;11910;52.086;21.066;2023-07-31T12:36:43;26.40;73.50
23475;DHT22;11910;52.086;21.066;2023-07-31T12:39:09;26.40;72.30
23475;DHT22;11910;52.086;21.066;2023-07-31T12:41:35;26.30;71.40
23475;DHT22;11910;52.086;21.066;2023-07-31T12:44:01;26.50;72.30
23475;DHT22;11910;52.086;21.066;2023-07-31T12:46:26;26.70;74.30
23475;DHT22;11910;52.086;21.066;2023-07-31T12:48:52;26.70;73.60
23475;DHT22;11910;52.086;21.066;2023-07-31T12:51:18;26.50;71.90
23475;DHT22;11910;52.086;21.066;2023-07-31T12:53:44;26.50;72.20
23475;DHT22;11910;52.086;21.066;2023-07-31T12:56:09;26.40;73.40
23475;DHT22;11910;52.086;21.066;2023-07-31T12:58:35;26.40;71.70
23475;DHT22;11910;52.086;21.066;2023-07-31T13:01:00;26.40;70.90
23475;DHT22;11910;52.086;21.066;2023-07-31T13:03:27;26.40;71.20
23475;DHT22;11910;52.086;21.066;2023-07-31T13:05:54;26.60;72.90
23475;DHT22;11910;52.086;21.066;2023-07-31T13:08:20;26.60;73.90
23475;DHT22;11910;52.086;21.066;2023-07-31T13:10:45;26.60;72.60
23475;DHT22;11910;52.086;21.066;2023-07-31T13:13:11;26.80;72.50
23475;DHT22;11910;52.086;21.066;2023-07-31T13:15:37;27.20;71.20
23475;DHT22;11910;52.086;21.066;2023-07-31T13:18:03;27.20;70.30
23475;DHT22;11910;52.086;21.066;2023-07-31T13:20:28;27.00;70.70
23475;DHT22;11910;52.086;21.066;2023-07-31T13:22:54;26.80;72.60
23475;DHT22;11910;52.086;21.066;2023-07-31T13:25:19;26.80;74.30
23475;DHT22;11910;52.086;21.066;2023-07-31T13:27:45;27.00;74.10
23475;DHT22;11910;52.086;21.066;2023-07-31T13:30:11;28.10;71.40
23475;DHT22;11910;52.086;21.066;2023-07-31T13:32:36;27.70;70.70
23475;DHT22;11910;52.086;21.066;2023-07-31T13:35:07;27.40;68.70
23475;DHT22;11910;52.086;21.066;2023-07-31T13:37:33;27.10;69.30
23475;DHT22;11910;52.086;21.066;2023-07-31T13:39:59;27.10;71.20
23475;DHT22;11910;52.086;21.066;2023-07-31T13:42:25;27.20;71.70
23475;DHT22;11910;52.086;21.066;2023-07-31T13:44:51;27.00;70.60
23475;DHT22;11910;52.086;21.066;2023-07-31T13:47:17;26.90;70.60
23475;DHT22;11910;52.086;21.066;2023-07-31T13:49:43;26.80;73.60
23475;DHT22;11910;52.086;21.066;2023-07-31T13:52:09;26.80;73.30
23475;DHT22;11910;52.086;21.066;2023-07-31T13:54:34;26.50;71.20
23475;DHT22;11910;52.086;21.066;2023-07-31T13:57:00;26.40;71.90
23475;DHT22;11910;52.086;21.066;2023-07-31T13:59:26;26.30;72.60
23475;DHT22;11910;52.086;21.066;2023-07-31T14:01:51;26.30;73.10
23475;DHT22;11910;52.086;21.066;2023-07-31T14:04:17;26.20;73.50
23475;DHT22;11910;52.086;21.066;2023-07-31T14:06:45;26.30;74.20
23475;DHT22;11910;52.086;21.066;2023-07-31T14:09:13;26.30;73.30
23475;DHT22;11910;52.086;21.066;2023-07-31T14:11:39;26.20;73.60
23475;DHT22;11910;52.086;21.066;2023-07-31T14:14:05;26.30;73.50
23475;DHT22;11910;52.086;21.066;2023-07-31T14:16:30;26.20;74.30
23475;DHT22;11910;52.086;21.066;2023-07-31T14:18:56;26.00;72.70
23475;DHT22;11910;52.086;21.066;2023-07-31T14:21:25;26.00;73.50
23475;DHT22;11910;52.086;21.066;2023-07-31T14:23:50;26.00;72.10
23475;DHT22;11910;52.086;21.066;2023-07-31T14:26:16;25.90;72.90
23475;DHT22;11910;52.086;21.066;2023-07-31T14:28:42;25.80;74.00
23475;DHT22;11910;52.086;21.066;2023-07-31T14:31:07;25.90;74.80
23475;DHT22;11910;52.086;21.066;2023-07-31T14:33:33;25.90;73.80
23475;DHT22;11910;52.086;21.066;2023-07-31T14:35:59;26.00;73.90
23475;DHT22;11910;52.086;21.066;2023-07-31T14:38:24;26.10;73.20
23475;DHT22;11910;52.086;21.066;2023-07-31T14:40:50;26.20;74.70
23475;DHT22;11910;52.086;21.066;2023-07-31T14:43:16;26.30;73.70
23475;DHT22;11910;52.086;21.066;2023-07-31T14:45:42;26.20;73.10
23475;DHT22;11910;52.086;21.066;2023-07-31T14:48:08;26.20;74.20
23475;DHT22;11910;52.086;21.066;2023-07-31T14:50:33;26.30;74.60
23475;DHT22;11910;52.086;21.066;2023-07-31T14:52:59;26.20;75.50
23475;DHT22;11910;52.086;21.066;2023-07-31T14:55:25;26.20;76.70
23475;DHT22;11910;52.086;21.066;2023-07-31T15:07:35;25.60;85.80
23475;DHT22;11910;52.086;21.066;2023-07-31T15:10:02;25.60;77.80
23475;DHT22;11910;52.086;21.066;2023-07-31T15:12:28;25.70;78.20
23475;DHT22;11910;52.086;21.066;2023-07-31T15:14:54;25.70;78.00
23475;DHT22;11910;52.086;21.066;2023-07-31T15:17:19;25.80;75.50
23475;DHT22;11910;52.086;21.066;2023-07-31T15:19:45;25.80;76.90
23475;DHT22;11910;52.086;21.066;2023-07-31T15:22:11;25.80;77.50
23475;DHT22;11910;52.086;21.066;2023-07-31T15:24:36;25.80;76.80
23475;DHT22;11910;52.086;21.066;2023-07-31T15:27:02;25.70;78.00
23475;DHT22;11910;52.086;21.066;2023-07-31T15:41:40;25.60;81.90
23475;DHT22;11910;52.086;21.066;2023-07-31T15:44:06;25.60;80.20
23475;DHT22;11910;52.086;21.066;2023-07-31T15:46:32;25.50;78.20
23475;DHT22;11910;52.086;21.066;2023-07-31T15:48:58;25.40;78.40
23475;DHT22;11910;52.086;21.066;2023-07-31T15:51:24;25.30;79.50
23475;DHT22;11910;52.086;21.066;2023-07-31T15:53:50;25.30;80.00